createdAt,value
2018-09-02T00:01:25.204Z,99.90
2018-09-02T00:03:53.401Z,99.90
2018-09-02T00:06:21.575Z,99.90
2018-09-02T00:08:49.753Z,99.90
2018-09-02T00:11:17.956Z,99.90
2018-09-02T00:13:46.128Z,99.90
2018-09-02T00:16:14.308Z,99.90
2018-09-02T00:18:42.488Z,99.90
2018-09-02T00:21:10.685Z,99.90
2018-09-02T00:23:38.848Z,99.90
2018-09-02T00:26:07.037Z,99.90
2018-09-02T00:28:35.225Z,99.90
2018-09-02T00:31:03.410Z,99.90
2018-09-02T00:33:31.568Z,99.90
2018-09-02T00:35:59.724Z,99.90
2018-09-02T00:38:27.893Z,99.90
2018-09-02T00:40:56.062Z,99.90
2018-09-02T00:43:24.232Z,99.90
2018-09-02T00:45:52.401Z,99.90
2018-09-02T00:48:20.661Z,99.90
2018-09-02T00:50:48.826Z,99.90
2018-09-02T00:53:16.987Z,99.90
2018-09-02T00:55:45.143Z,99.90
2018-09-02T00:58:13.313Z,99.90
2018-09-02T01:00:41.489Z,99.90
2018-09-02T01:03:09.655Z,99.90
2018-09-02T01:05:37.816Z,99.90
2018-09-02T01:08:06.000Z,99.90
2018-09-02T01:10:34.159Z,99.90
2018-09-02T01:13:02.389Z,99.90
2018-09-02T01:15:30.568Z,99.90
2018-09-02T01:17:58.744Z,99.90
2018-09-02T01:20:26.941Z,99.90
2018-09-02T01:22:55.153Z,99.90
2018-09-02T01:25:23.297Z,99.90
2018-09-02T01:27:51.472Z,99.90
2018-09-02T01:30:19.638Z,99.90
2018-09-02T01:32:47.817Z,99.90
2018-09-02T01:35:21.452Z,99.90
2018-09-02T01:37:49.621Z,99.90
2018-09-02T01:40:18.022Z,99.90
2018-09-02T01:42:46.198Z,99.90
2018-09-02T01:45:14.363Z,99.90
2018-09-02T01:47:42.551Z,99.90
2018-09-02T01:50:10.711Z,99.90
2018-09-02T01:52:38.884Z,99.90
2018-09-02T01:55:07.075Z,99.90
2018-09-02T01:57:35.255Z,99.90
2018-09-02T02:00:03.514Z,99.90
2018-09-02T02:02:31.668Z,99.90
2018-09-02T02:04:59.936Z,99.90
2018-09-02T02:07:28.128Z,99.90
2018-09-02T02:09:56.297Z,99.90
2018-09-02T02:12:24.456Z,99.90
2018-09-02T02:14:52.613Z,99.90
2018-09-02T02:17:20.790Z,99.90
2018-09-02T02:19:48.948Z,99.90
2018-09-02T02:22:17.164Z,99.90
2018-09-02T02:24:45.313Z,99.90
2018-09-02T02:27:13.492Z,99.90
2018-09-02T02:29:41.655Z,99.90
2018-09-02T02:32:09.820Z,99.90
2018-09-02T02:34:37.992Z,99.90
2018-09-02T02:37:06.165Z,99.90
2018-09-02T02:39:34.341Z,99.90
2018-09-02T02:42:02.512Z,99.90
2018-09-02T02:44:30.704Z,99.90
2018-09-02T02:46:58.880Z,99.90
2018-09-02T02:49:27.060Z,99.90
2018-09-02T02:51:55.232Z,99.90
2018-09-02T02:54:23.395Z,99.90
2018-09-02T02:56:51.544Z,99.90
2018-09-02T02:59:19.740Z,99.90
2018-09-02T03:01:47.905Z,99.90
2018-09-02T03:04:16.092Z,99.90
2018-09-02T03:06:44.252Z,99.90
2018-09-02T03:09:12.858Z,99.90
2018-09-02T03:11:41.294Z,99.90
2018-09-02T03:14:10.205Z,99.90
2018-09-02T03:16:38.401Z,99.90
2018-09-02T03:19:06.801Z,99.90
2018-09-02T03:21:34.974Z,99.90
2018-09-02T03:24:03.151Z,99.90
2018-09-02T03:26:31.308Z,99.90
2018-09-02T03:28:59.573Z,99.90
2018-09-02T03:31:27.788Z,99.90
2018-09-02T03:33:56.004Z,99.90
2018-09-02T03:36:24.174Z,99.90
2018-09-02T03:38:52.338Z,99.90
2018-09-02T03:41:20.527Z,99.90
2018-09-02T03:43:48.697Z,99.90
2018-09-02T03:46:16.872Z,99.90
2018-09-02T03:48:45.041Z,99.90
2018-09-02T03:51:13.213Z,99.90
2018-09-02T03:53:41.380Z,99.90
2018-09-02T03:56:09.549Z,99.90
2018-09-02T03:58:37.737Z,99.90
2018-09-02T04:01:06.129Z,99.90
2018-09-02T04:03:34.298Z,99.90
2018-09-02T04:06:02.449Z,99.90
2018-09-02T04:08:30.624Z,99.90
2018-09-02T04:10:58.793Z,99.90
2018-09-02T04:13:26.971Z,99.90
2018-09-02T04:15:55.128Z,99.90
2018-09-02T04:18:23.292Z,99.90
2018-09-02T04:20:51.457Z,99.90
2018-09-02T04:23:19.636Z,99.90
2018-09-02T04:25:47.806Z,99.90
2018-09-02T04:28:15.968Z,99.90
2018-09-02T04:30:44.151Z,99.90
2018-09-02T04:33:12.348Z,99.90
2018-09-02T04:35:40.524Z,99.90
2018-09-02T04:38:08.714Z,99.90
2018-09-02T04:40:36.876Z,99.90
2018-09-02T04:43:05.069Z,99.90
2018-09-02T04:45:33.236Z,99.90
2018-09-02T04:48:01.495Z,99.90
2018-09-02T04:50:29.656Z,99.90
2018-09-02T04:52:57.827Z,99.90
2018-09-02T04:55:25.998Z,99.90
2018-09-02T04:57:54.164Z,99.90
2018-09-02T05:00:22.390Z,99.90
2018-09-02T05:02:51.136Z,99.90
2018-09-02T05:05:19.324Z,99.90
2018-09-02T05:07:47.508Z,99.90
2018-09-02T05:10:15.697Z,99.90
2018-09-02T05:12:43.871Z,99.90
2018-09-02T05:15:12.056Z,99.90
2018-09-02T05:17:40.231Z,99.90
2018-09-02T05:20:08.424Z,99.90
2018-09-02T05:22:36.624Z,99.90
2018-09-02T05:25:04.811Z,99.90
2018-09-02T05:27:32.985Z,99.90
2018-09-02T05:30:01.190Z,99.90
2018-09-02T05:32:29.354Z,99.90
2018-09-02T05:34:57.531Z,99.90
2018-09-02T05:37:25.701Z,99.90
2018-09-02T05:39:53.876Z,99.90
2018-09-02T05:42:22.062Z,99.90
2018-09-02T05:44:50.337Z,99.90
2018-09-02T05:47:18.512Z,99.90
2018-09-02T05:49:46.689Z,99.90
2018-09-02T05:52:15.063Z,99.90
2018-09-02T05:54:43.220Z,99.90
2018-09-02T05:57:11.390Z,99.90
2018-09-02T05:59:39.654Z,99.90
2018-09-02T06:02:07.833Z,99.90
2018-09-02T06:04:36.001Z,99.90
2018-09-02T06:07:04.171Z,99.90
2018-09-02T06:09:32.348Z,99.90
2018-09-02T06:12:00.516Z,99.90
2018-09-02T06:14:28.933Z,99.90
2018-09-02T06:16:57.108Z,99.90
2018-09-02T06:19:25.298Z,99.90
2018-09-02T06:21:53.500Z,99.90
2018-09-02T06:24:21.865Z,99.90
2018-09-02T06:26:50.038Z,99.90
2018-09-02T06:29:18.248Z,99.90
2018-09-02T06:31:46.439Z,99.90
2018-09-02T06:34:14.611Z,99.90
2018-09-02T06:36:42.782Z,99.90
2018-09-02T06:39:12.220Z,99.90
2018-09-02T06:41:40.388Z,99.90
2018-09-02T06:44:08.801Z,99.90
2018-09-02T06:46:36.973Z,99.90
2018-09-02T06:49:05.329Z,99.90
2018-09-02T06:51:33.568Z,99.90
2018-09-02T06:54:01.711Z,99.90
2018-09-02T06:56:30.480Z,99.90
2018-09-02T06:58:58.723Z,99.90
2018-09-02T07:01:26.861Z,99.90
2018-09-02T07:03:55.041Z,99.90
2018-09-02T07:06:23.205Z,99.90
2018-09-02T07:08:51.425Z,99.90
2018-09-02T07:11:19.598Z,99.90
2018-09-02T07:13:47.785Z,99.90
2018-09-02T07:16:15.965Z,99.90
2018-09-02T07:18:44.143Z,99.90
2018-09-02T07:21:12.348Z,99.90
2018-09-02T07:23:40.520Z,99.90
2018-09-02T07:26:08.702Z,99.90
2018-09-02T07:28:36.936Z,99.90
2018-09-02T07:31:05.168Z,99.90
2018-09-02T07:33:33.367Z,99.90
2018-09-02T07:36:01.573Z,99.90
2018-09-02T07:38:29.777Z,99.90
2018-09-02T07:40:58.198Z,99.90
2018-09-02T07:43:26.450Z,99.90
2018-09-02T07:45:54.640Z,99.90
2018-09-02T07:48:22.842Z,99.90
2018-09-02T07:50:51.021Z,99.90
2018-09-02T07:53:19.193Z,99.90
2018-09-02T07:55:47.390Z,99.90
2018-09-02T07:58:15.572Z,99.90
2018-09-02T08:00:43.757Z,99.90
2018-09-02T08:03:11.932Z,99.90
2018-09-02T08:05:40.126Z,99.90
2018-09-02T08:08:08.335Z,99.90
2018-09-02T08:10:36.513Z,99.90
2018-09-02T08:13:04.700Z,99.90
2018-09-02T08:15:32.864Z,99.90
2018-09-02T08:18:01.075Z,99.90
2018-09-02T08:20:29.272Z,99.90
2018-09-02T08:22:57.582Z,99.90
2018-09-02T08:25:25.758Z,99.90
2018-09-02T08:27:53.955Z,99.90
2018-09-02T08:30:22.281Z,99.90
2018-09-02T08:32:50.475Z,99.90
2018-09-02T08:35:18.681Z,99.90
2018-09-02T08:37:46.853Z,99.90
2018-09-02T08:40:15.036Z,99.90
2018-09-02T08:42:43.261Z,99.90
2018-09-02T08:45:11.444Z,99.90
2018-09-02T08:47:39.812Z,99.90
2018-09-02T08:50:07.985Z,99.90
2018-09-02T08:52:36.167Z,99.40
2018-09-02T08:55:04.356Z,99.30
2018-09-02T08:57:32.575Z,99.20
2018-09-02T09:00:01.275Z,98.90
2018-09-02T09:02:29.977Z,98.90
2018-09-02T09:04:58.435Z,98.50
2018-09-02T09:07:27.923Z,98.20
2018-09-02T09:09:56.067Z,97.90
2018-09-02T09:12:24.283Z,97.80
2018-09-02T09:14:52.452Z,97.50
2018-09-02T09:17:20.628Z,97.10
2018-09-02T09:19:48.836Z,96.40
2018-09-02T09:22:17.017Z,96.60
2018-09-02T09:24:45.196Z,96.20
2018-09-02T09:27:13.385Z,95.10
2018-09-02T09:29:41.841Z,95.30
2018-09-02T09:32:10.194Z,95.50
2018-09-02T09:34:38.300Z,94.70
2018-09-02T09:37:06.524Z,95.00
2018-09-02T09:39:34.692Z,94.30
2018-09-02T09:42:02.875Z,93.70
2018-09-02T09:44:31.048Z,93.20
2018-09-02T09:46:59.298Z,93.00
2018-09-02T09:49:27.500Z,93.00
2018-09-02T09:51:55.673Z,92.20
2018-09-02T09:54:23.841Z,92.20
2018-09-02T09:56:52.016Z,91.80
2018-09-02T09:59:20.218Z,91.70
2018-09-02T10:01:48.379Z,91.40
2018-09-02T10:04:16.587Z,91.00
2018-09-02T10:06:44.840Z,91.20
2018-09-02T10:09:43.937Z,91.00
2018-09-02T10:12:12.131Z,91.00
2018-09-02T10:14:40.293Z,90.40
2018-09-02T10:17:08.502Z,90.70
2018-09-02T10:19:36.645Z,90.10
2018-09-02T10:22:04.812Z,90.00
2018-09-02T10:24:32.989Z,88.90
2018-09-02T10:27:01.143Z,87.60
2018-09-02T10:29:29.305Z,88.40
2018-09-02T10:31:57.489Z,86.40
2018-09-02T10:34:25.657Z,86.50
2018-09-02T10:36:53.844Z,85.10
2018-09-02T10:39:22.045Z,84.50
2018-09-02T10:41:50.244Z,84.20
2018-09-02T10:44:18.599Z,83.70
2018-09-02T10:46:46.774Z,80.80
2018-09-02T10:49:15.061Z,75.90
2018-09-02T10:51:43.234Z,76.90
2018-09-02T10:54:11.496Z,78.20
2018-09-02T10:56:39.776Z,78.40
2018-09-02T10:59:08.036Z,77.90
2018-09-02T11:01:36.196Z,77.00
2018-09-02T11:04:04.395Z,77.50
2018-09-02T11:06:32.652Z,77.80
2018-09-02T11:09:00.832Z,75.60
2018-09-02T11:11:29.001Z,74.90
2018-09-02T11:13:57.293Z,73.40
2018-09-02T11:16:25.337Z,74.50
2018-09-02T11:18:53.695Z,74.20
2018-09-02T11:21:21.906Z,75.20
2018-09-02T11:23:50.073Z,74.10
2018-09-02T11:26:18.268Z,73.40
2018-09-02T11:28:46.647Z,73.90
2018-09-02T11:31:14.824Z,72.80
2018-09-02T11:33:43.004Z,72.00
2018-09-02T11:36:11.186Z,72.40
2018-09-02T11:38:39.373Z,71.60
2018-09-02T11:41:07.569Z,72.90
2018-09-02T11:43:35.845Z,72.90
2018-09-02T11:46:04.262Z,72.40
2018-09-02T11:48:32.474Z,73.00
2018-09-02T11:51:00.808Z,72.00
2018-09-02T11:53:28.994Z,72.00
2018-09-02T11:55:57.155Z,72.30
2018-09-02T11:58:25.339Z,70.40
2018-09-02T12:00:53.500Z,69.30
2018-09-02T12:03:21.676Z,70.00
2018-09-02T12:05:51.279Z,69.90
2018-09-02T12:08:19.860Z,70.80
2018-09-02T12:10:48.033Z,69.00
2018-09-02T12:13:16.409Z,68.40
2018-09-02T12:15:46.517Z,68.00
2018-09-02T12:18:15.496Z,67.20
2018-09-02T12:20:43.652Z,66.20
2018-09-02T12:23:11.831Z,66.00
2018-09-02T12:25:40.112Z,65.90
2018-09-02T12:28:08.517Z,64.90
2018-09-02T12:30:36.680Z,65.70
2018-09-02T12:33:04.856Z,66.70
2018-09-02T12:35:33.026Z,65.50
2018-09-02T12:38:01.212Z,64.50
2018-09-02T12:40:29.384Z,65.30
2018-09-02T12:42:57.552Z,65.40
2018-09-02T12:45:25.717Z,65.30
2018-09-02T12:47:53.988Z,65.20
2018-09-02T12:50:22.057Z,66.40
2018-09-02T12:52:50.422Z,65.10
2018-09-02T12:55:18.628Z,64.90
2018-09-02T12:57:46.759Z,65.20
2018-09-02T13:00:14.941Z,64.00
2018-09-02T13:02:43.098Z,64.20
2018-09-02T13:05:11.260Z,63.80
2018-09-02T13:07:39.429Z,63.20
2018-09-02T13:10:07.608Z,63.10
2018-09-02T13:12:35.901Z,63.00
2018-09-02T13:15:04.341Z,63.20
2018-09-02T13:17:32.503Z,61.30
2018-09-02T13:20:00.675Z,62.40
2018-09-02T13:22:28.840Z,63.00
2018-09-02T13:24:57.181Z,62.30
2018-09-02T13:27:25.370Z,62.90
2018-09-02T13:29:53.552Z,64.10
2018-09-02T13:32:21.709Z,64.10
2018-09-02T13:34:49.889Z,63.90
2018-09-02T13:37:18.052Z,63.00
2018-09-02T13:39:46.244Z,64.00
2018-09-02T13:42:14.820Z,65.00
2018-09-02T13:44:43.009Z,62.50
2018-09-02T13:47:11.225Z,61.30
2018-09-02T13:49:39.516Z,62.40
2018-09-02T13:52:08.164Z,63.10
2018-09-02T13:54:36.586Z,63.30
2018-09-02T13:57:05.177Z,63.60
2018-09-02T13:59:33.370Z,64.70
2018-09-02T14:02:01.546Z,65.10
2018-09-02T14:04:29.717Z,64.20
2018-09-02T14:06:57.886Z,64.90
2018-09-02T14:09:26.081Z,64.90
2018-09-02T14:11:54.265Z,65.60
2018-09-02T14:14:22.456Z,65.20
2018-09-02T14:16:50.783Z,65.80
2018-09-02T14:19:19.069Z,65.80
2018-09-02T14:21:47.240Z,65.80
2018-09-02T14:24:15.428Z,67.80
2018-09-02T14:26:43.840Z,66.80
2018-09-02T14:29:12.029Z,67.10
2018-09-02T14:31:40.238Z,68.00
2018-09-02T14:34:08.419Z,67.80
2018-09-02T14:36:36.576Z,68.80
2018-09-02T14:39:07.761Z,68.90
2018-09-02T14:41:35.935Z,67.70
2018-09-02T14:44:04.183Z,68.50
2018-09-02T14:46:32.494Z,69.60
2018-09-02T14:49:00.913Z,69.50
2018-09-02T14:51:29.088Z,69.60
2018-09-02T14:53:57.472Z,69.70
2018-09-02T14:56:25.646Z,70.20
2018-09-02T14:58:53.820Z,70.20
2018-09-02T15:01:22.054Z,70.40
2018-09-02T15:03:50.216Z,70.60
2018-09-02T15:06:18.397Z,70.50
2018-09-02T15:08:46.557Z,71.70
2018-09-02T15:11:14.948Z,71.40
2018-09-02T15:13:43.104Z,71.50
2018-09-02T15:16:11.665Z,71.10
2018-09-02T15:18:39.829Z,71.50
2018-09-02T15:21:08.079Z,72.40
2018-09-02T15:23:36.292Z,72.30
2018-09-02T15:26:04.467Z,73.40
2018-09-02T15:28:32.772Z,73.00
2018-09-02T15:31:00.973Z,71.70
2018-09-02T15:33:29.448Z,71.60
2018-09-02T15:35:57.629Z,72.30
2018-09-02T15:38:25.784Z,72.60
2018-09-02T15:40:53.982Z,72.30
2018-09-02T15:43:22.154Z,70.70
2018-09-02T15:45:51.345Z,70.50
2018-09-02T15:48:19.512Z,70.80
2018-09-02T15:50:47.668Z,71.10
2018-09-02T15:53:15.846Z,71.60
2018-09-02T15:55:44.036Z,70.90
2018-09-02T15:58:12.205Z,70.70
2018-09-02T16:00:40.462Z,70.90
2018-09-02T16:03:08.652Z,71.80
2018-09-02T16:05:36.829Z,71.70
2018-09-02T16:08:05.156Z,72.10
2018-09-02T16:10:33.316Z,72.10
2018-09-02T16:13:01.490Z,72.90
2018-09-02T16:15:29.660Z,71.90
2018-09-02T16:17:57.829Z,72.20
2018-09-02T16:20:26.009Z,72.50
2018-09-02T16:22:54.179Z,70.80
2018-09-02T16:25:22.341Z,71.30
2018-09-02T16:27:50.603Z,71.20
2018-09-02T16:30:19.027Z,71.30
2018-09-02T16:32:47.184Z,70.20
2018-09-02T16:35:15.362Z,69.60
2018-09-02T16:37:43.520Z,68.20
2018-09-02T16:40:11.673Z,68.40
2018-09-02T16:42:39.850Z,67.60
2018-09-02T16:45:08.039Z,66.80
2018-09-02T16:47:36.202Z,66.90
2018-09-02T16:50:04.417Z,67.10
2018-09-02T16:52:32.592Z,66.00
2018-09-02T16:55:00.756Z,65.30
2018-09-02T16:57:28.935Z,66.00
2018-09-02T16:59:57.240Z,65.60
2018-09-02T17:02:25.626Z,64.50
2018-09-02T17:04:57.277Z,64.30
2018-09-02T17:07:25.449Z,64.50
2018-09-02T17:09:53.696Z,65.20
2018-09-02T17:12:22.006Z,64.00
2018-09-02T17:14:50.059Z,63.20
2018-09-02T17:17:18.236Z,64.00
2018-09-02T17:19:49.026Z,62.60
2018-09-02T17:22:17.206Z,62.20
2018-09-02T17:24:45.549Z,62.50
2018-09-02T17:27:13.938Z,62.90
2018-09-02T17:29:42.193Z,63.20
2018-09-02T17:32:13.796Z,63.00
2018-09-02T17:34:41.988Z,63.90
2018-09-02T17:37:10.197Z,63.70
2018-09-02T17:39:38.376Z,63.90
2018-09-02T17:42:06.550Z,64.20
2018-09-02T17:44:34.776Z,64.40
2018-09-02T17:47:03.183Z,65.00
2018-09-02T17:49:31.452Z,65.40
2018-09-02T17:51:59.656Z,66.90
2018-09-02T17:54:27.833Z,66.30
2018-09-02T17:56:56.012Z,66.80
2018-09-02T17:59:24.287Z,67.00
2018-09-02T18:01:52.867Z,67.40
2018-09-02T18:04:21.062Z,67.20
2018-09-02T18:06:49.253Z,67.70
2018-09-02T18:09:17.546Z,68.40
2018-09-02T18:11:45.725Z,68.80
2018-09-02T18:14:13.894Z,69.60
2018-09-02T18:16:42.072Z,69.80
2018-09-02T18:19:10.245Z,70.00
2018-09-02T18:21:38.421Z,71.10
2018-09-02T18:24:06.669Z,71.30
2018-09-02T18:26:34.840Z,72.40
2018-09-02T18:29:03.008Z,73.70
2018-09-02T18:31:31.178Z,72.80
2018-09-02T18:33:59.353Z,73.50
2018-09-02T18:36:28.114Z,73.70
2018-09-02T18:38:56.172Z,74.30
2018-09-02T18:41:24.438Z,74.20
2018-09-02T18:43:52.528Z,73.80
2018-09-02T18:46:20.740Z,74.50
2018-09-02T18:48:48.926Z,74.60
2018-09-02T18:51:17.088Z,75.40
2018-09-02T18:53:45.367Z,75.90
2018-09-02T18:56:13.541Z,76.50
2018-09-02T18:58:41.717Z,77.80
2018-09-02T19:01:09.929Z,77.20
2018-09-02T19:03:38.188Z,77.00
2018-09-02T19:06:06.403Z,76.80
2018-09-02T19:08:34.584Z,76.60
2018-09-02T19:11:02.769Z,76.70
2018-09-02T19:13:30.944Z,76.80
2018-09-02T19:15:59.286Z,76.50
2018-09-02T19:18:27.417Z,77.00
2018-09-02T19:20:55.597Z,77.80
2018-09-02T19:23:23.794Z,78.10
2018-09-02T19:25:51.981Z,80.20
2018-09-02T19:28:20.231Z,80.30
2018-09-02T19:30:48.420Z,80.60
2018-09-02T19:33:16.591Z,81.80
2018-09-02T19:35:44.927Z,80.30
2018-09-02T19:38:13.096Z,80.10
2018-09-02T19:40:41.252Z,79.50
2018-09-02T19:43:09.436Z,78.90
2018-09-02T19:45:37.592Z,78.10
2018-09-02T19:48:05.781Z,78.30
2018-09-02T19:50:33.940Z,77.20
2018-09-02T19:53:02.119Z,75.20
2018-09-02T19:55:30.290Z,74.40
2018-09-02T19:57:58.520Z,74.20
2018-09-02T20:00:26.891Z,73.70
2018-09-02T20:02:55.082Z,73.60
2018-09-02T20:05:23.241Z,73.90
2018-09-02T20:07:51.397Z,74.30
2018-09-02T20:10:19.593Z,74.80
2018-09-02T20:12:47.822Z,75.10
2018-09-02T20:15:16.023Z,75.70
2018-09-02T20:17:44.198Z,75.90
2018-09-02T20:20:12.385Z,77.30
2018-09-02T20:22:40.548Z,77.40
2018-09-02T20:25:08.725Z,77.50
2018-09-02T20:27:36.912Z,78.10
2018-09-02T20:30:05.405Z,77.90
2018-09-02T20:32:33.593Z,78.30
2018-09-02T20:35:01.777Z,78.90
2018-09-02T20:37:29.972Z,78.90
2018-09-02T20:39:58.133Z,79.80
2018-09-02T20:42:26.314Z,80.70
2018-09-02T20:44:54.491Z,81.10
2018-09-02T20:47:22.657Z,80.80
2018-09-02T20:49:50.890Z,82.40
2018-09-02T20:52:19.069Z,81.80
2018-09-02T20:54:47.237Z,81.90
2018-09-02T20:57:15.400Z,82.40
2018-09-02T20:59:43.604Z,82.60
2018-09-02T21:02:11.797Z,83.40
2018-09-02T21:04:39.948Z,83.90
2018-09-02T21:07:08.117Z,84.90
2018-09-02T21:09:36.292Z,85.40
2018-09-02T21:12:04.464Z,85.60
2018-09-02T21:14:32.629Z,87.00
2018-09-02T21:17:00.856Z,86.80
2018-09-02T21:19:29.001Z,87.60
2018-09-02T21:21:57.175Z,88.20
2018-09-02T21:24:25.340Z,88.60
2018-09-02T21:26:53.505Z,88.70
2018-09-02T21:29:21.696Z,89.60
2018-09-02T21:31:49.857Z,89.40
2018-09-02T21:34:18.046Z,90.00
2018-09-02T21:36:46.244Z,90.10
2018-09-02T21:39:14.415Z,90.40
2018-09-02T21:41:42.618Z,90.50
2018-09-02T21:44:10.855Z,90.80
2018-09-02T21:46:39.023Z,90.80
2018-09-02T21:49:07.197Z,90.90
2018-09-02T21:51:35.403Z,90.80
2018-09-02T21:54:03.717Z,90.80
2018-09-02T21:56:31.879Z,90.90
2018-09-02T21:59:00.089Z,90.80
2018-09-02T22:01:28.252Z,91.50
2018-09-02T22:03:56.454Z,91.20
2018-09-02T22:06:24.620Z,91.30
2018-09-02T22:08:52.780Z,91.40
2018-09-02T22:11:20.933Z,91.50
2018-09-02T22:13:49.111Z,91.50
2018-09-02T22:16:17.290Z,91.50
2018-09-02T22:18:45.452Z,91.70
2018-09-02T22:21:13.603Z,91.70
2018-09-02T22:23:41.884Z,91.80
2018-09-02T22:26:10.036Z,91.90
2018-09-02T22:28:38.213Z,92.00
2018-09-02T22:31:06.375Z,92.20
2018-09-02T22:33:34.552Z,92.30
2018-09-02T22:36:03.033Z,92.60
2018-09-02T22:38:31.220Z,92.90
2018-09-02T22:40:59.392Z,92.90
2018-09-02T22:43:27.560Z,93.00
2018-09-02T22:45:55.736Z,93.20
2018-09-02T22:48:23.978Z,93.30
2018-09-02T22:50:52.160Z,93.40
2018-09-02T22:53:20.324Z,93.60
2018-09-02T22:55:48.503Z,93.80
2018-09-02T22:58:16.676Z,93.90
2018-09-02T23:00:44.837Z,94.00
2018-09-02T23:03:13.100Z,94.20
2018-09-02T23:05:41.300Z,94.20
2018-09-02T23:08:09.491Z,94.30
2018-09-02T23:10:37.779Z,94.50
2018-09-02T23:13:06.084Z,94.60
2018-09-02T23:15:34.262Z,94.80
2018-09-02T23:18:02.441Z,94.80
2018-09-02T23:20:30.623Z,95.00
2018-09-02T23:22:58.784Z,95.20
2018-09-02T23:25:26.965Z,95.50
2018-09-02T23:27:55.133Z,95.50
2018-09-02T23:30:23.304Z,95.80
2018-09-02T23:32:51.470Z,95.90
2018-09-02T23:35:19.657Z,96.10
2018-09-02T23:37:47.946Z,96.20
2018-09-02T23:40:16.208Z,96.30
2018-09-02T23:42:44.372Z,96.40
2018-09-02T23:45:12.552Z,96.70
2018-09-02T23:47:40.717Z,96.90
2018-09-02T23:50:08.895Z,97.10
2018-09-02T23:52:37.074Z,97.50
2018-09-02T23:55:05.244Z,97.80
2018-09-02T23:57:33.422Z,98.10
